createdAt,value
2017-11-29T00:01:20.083Z,12.30
2017-11-29T00:03:49.915Z,13.00
2017-11-29T00:06:33.273Z,13.50
2017-11-29T00:09:02.855Z,14.10
2017-11-29T00:11:33.336Z,13.47
2017-11-29T00:14:02.331Z,14.00
2017-11-29T00:16:30.538Z,13.80
2017-11-29T00:18:58.723Z,14.00
2017-11-29T00:21:27.600Z,13.30
2017-11-29T00:23:56.170Z,13.93
2017-11-29T00:26:24.358Z,14.87
2017-11-29T00:28:52.557Z,15.10
2017-11-29T00:31:20.697Z,14.83
2017-11-29T00:33:48.989Z,16.03
2017-11-29T00:36:17.172Z,16.37
2017-11-29T00:38:45.286Z,15.97
2017-11-29T00:41:13.427Z,15.50
2017-11-29T00:43:41.603Z,16.03
2017-11-29T00:46:10.487Z,16.07
2017-11-29T00:48:39.428Z,15.43
2017-11-29T00:51:07.633Z,16.27
2017-11-29T00:53:35.749Z,14.60
2017-11-29T00:56:03.887Z,13.93
2017-11-29T00:58:32.093Z,16.23
2017-11-29T01:01:00.223Z,16.17
2017-11-29T01:03:29.116Z,14.10
2017-11-29T01:05:58.091Z,15.27
2017-11-29T01:08:26.203Z,14.20
2017-11-29T01:10:55.368Z,14.53
2017-11-29T01:13:25.049Z,13.97
2017-11-29T01:15:53.397Z,13.10
2017-11-29T01:18:21.551Z,15.53
2017-11-29T01:20:49.672Z,14.57
2017-11-29T01:23:17.780Z,14.37
2017-11-29T01:25:45.910Z,15.90
2017-11-29T01:28:14.046Z,16.60
2017-11-29T01:30:42.941Z,16.30
2017-11-29T01:33:11.085Z,16.23
2017-11-29T01:35:39.285Z,15.00
2017-11-29T01:38:07.445Z,14.23
2017-11-29T01:40:35.614Z,15.80
2017-11-29T01:43:03.755Z,16.03
2017-11-29T01:45:31.919Z,17.80
2017-11-29T01:48:00.111Z,15.73
2017-11-29T01:50:28.208Z,16.90
2017-11-29T01:52:56.376Z,16.03
2017-11-29T01:55:24.618Z,16.63
2017-11-29T01:57:53.571Z,16.50
2017-11-29T02:00:21.730Z,16.67
2017-11-29T02:02:49.943Z,16.77
2017-11-29T02:05:18.102Z,14.87
2017-11-29T02:07:46.301Z,15.73
2017-11-29T02:10:14.428Z,16.27
2017-11-29T02:12:42.614Z,15.43
2017-11-29T02:15:10.747Z,13.60
2017-11-29T02:17:38.874Z,16.27
2017-11-29T02:20:07.122Z,16.07
2017-11-29T02:22:35.307Z,15.83
2017-11-29T02:25:03.496Z,16.77
2017-11-29T02:27:31.647Z,17.47
2017-11-29T02:30:00.553Z,17.20
2017-11-29T02:32:29.521Z,18.00
2017-11-29T02:34:57.686Z,16.77
2017-11-29T02:37:25.843Z,16.37
2017-11-29T02:40:06.084Z,17.63
2017-11-29T02:42:39.619Z,16.67
2017-11-29T02:45:07.825Z,17.60
2017-11-29T02:47:35.964Z,16.40
2017-11-29T02:50:04.087Z,16.50
2017-11-29T02:52:32.272Z,15.10
2017-11-29T02:55:00.489Z,17.00
2017-11-29T02:57:28.606Z,17.60
2017-11-29T02:59:56.761Z,17.67
2017-11-29T03:02:24.959Z,17.53
2017-11-29T03:04:53.089Z,15.73
2017-11-29T03:07:21.215Z,17.83
2017-11-29T03:09:50.303Z,18.20
2017-11-29T03:12:18.435Z,17.57
2017-11-29T03:14:46.556Z,17.10
2017-11-29T03:17:14.718Z,16.33
2017-11-29T03:19:42.860Z,15.67
2017-11-29T03:22:10.982Z,16.27
2017-11-29T03:24:39.867Z,17.90
2017-11-29T03:27:07.994Z,17.53
2017-11-29T03:29:36.155Z,17.20
2017-11-29T03:32:04.374Z,15.10
2017-11-29T03:34:32.731Z,17.90
2017-11-29T03:37:00.939Z,16.23
2017-11-29T03:39:29.835Z,16.53
2017-11-29T03:41:58.782Z,16.70
2017-11-29T03:44:26.993Z,16.97
2017-11-29T03:46:55.174Z,18.03
2017-11-29T03:49:23.734Z,17.27
2017-11-29T03:51:51.851Z,18.20
2017-11-29T03:54:19.994Z,17.03
2017-11-29T03:56:48.103Z,19.43
2017-11-29T03:59:16.251Z,18.37
2017-11-29T04:01:44.408Z,17.13
2017-11-29T04:04:12.537Z,19.00
2017-11-29T04:06:40.712Z,17.83
2017-11-29T04:09:08.900Z,18.10
2017-11-29T04:11:40.604Z,18.10
2017-11-29T04:14:08.806Z,18.37
2017-11-29T04:16:36.966Z,17.27
2017-11-29T04:19:05.921Z,17.40
2017-11-29T04:21:35.033Z,18.17
2017-11-29T04:24:03.148Z,17.73
2017-11-29T04:26:31.401Z,18.27
2017-11-29T04:29:00.558Z,16.40
2017-11-29T04:31:28.694Z,17.50
2017-11-29T04:33:57.626Z,18.10
2017-11-29T04:36:25.848Z,17.30
2017-11-29T04:38:54.045Z,16.67
2017-11-29T04:41:22.164Z,16.67
2017-11-29T04:43:50.344Z,17.50
2017-11-29T04:46:27.482Z,19.10
2017-11-29T04:49:10.284Z,17.27
2017-11-29T04:52:11.838Z,18.13
2017-11-29T04:55:01.937Z,16.80
2017-11-29T06:05:21.069Z,20.27
2017-11-29T06:07:49.173Z,20.80
2017-11-29T06:10:17.369Z,20.77
2017-11-29T06:12:46.388Z,21.60
2017-11-29T06:15:15.268Z,21.57
2017-11-29T06:17:43.552Z,22.20
2017-11-29T06:20:12.208Z,21.20
2017-11-29T06:22:40.325Z,21.03
2017-11-29T06:25:08.515Z,20.93
2017-11-29T06:27:36.679Z,21.40
2017-11-29T06:30:04.812Z,21.40
2017-11-29T06:32:36.026Z,21.80
2017-11-29T06:35:04.152Z,20.83
2017-11-29T06:37:32.351Z,20.93
2017-11-29T06:40:00.816Z,20.47
2017-11-29T06:42:28.943Z,19.73
2017-11-29T06:44:57.280Z,21.33
2017-11-29T06:47:26.438Z,21.50
2017-11-29T06:49:55.829Z,21.83
2017-11-29T06:52:24.803Z,20.70
2017-11-29T06:54:54.518Z,21.57
2017-11-29T06:57:22.745Z,21.53
2017-11-29T06:59:50.884Z,21.57
2017-11-29T07:02:19.095Z,23.70
2017-11-29T07:04:47.323Z,18.90
2017-11-29T07:07:17.144Z,21.47
2017-11-29T07:09:45.391Z,23.53
2017-11-29T07:12:14.354Z,23.70
2017-11-29T07:14:42.487Z,20.53
2017-11-29T07:17:10.701Z,20.33
2017-11-29T07:19:38.933Z,21.97
2017-11-29T07:22:07.297Z,22.43
2017-11-29T07:24:36.290Z,22.20
2017-11-29T07:27:04.408Z,21.27
2017-11-29T07:29:36.471Z,23.40
2017-11-29T07:32:04.644Z,23.43
2017-11-29T07:34:34.551Z,22.20
2017-11-29T07:37:02.659Z,22.03
2017-11-29T07:39:30.769Z,22.40
2017-11-29T07:41:59.129Z,22.40
2017-11-29T07:44:29.328Z,22.43
2017-11-29T07:46:59.663Z,22.83
2017-11-29T07:49:28.543Z,21.50
2017-11-29T07:51:56.650Z,22.13
2017-11-29T07:54:25.336Z,22.20
2017-11-29T07:56:53.509Z,23.70
2017-11-29T07:59:22.019Z,23.07
2017-11-29T08:01:50.188Z,23.67
2017-11-29T08:04:18.314Z,22.70
2017-11-29T08:06:50.689Z,24.00
2017-11-29T08:09:18.905Z,22.30
2017-11-29T08:11:47.128Z,23.30
2017-11-29T08:14:15.289Z,20.20
2017-11-29T08:16:50.612Z,22.77
2017-11-29T08:19:19.495Z,21.53
2017-11-29T08:21:48.435Z,21.07
2017-11-29T08:24:17.687Z,20.13
2017-11-29T08:26:48.062Z,21.53
2017-11-29T08:29:16.462Z,21.07
2017-11-29T08:31:45.737Z,20.80
2017-11-29T08:34:14.818Z,22.20
2017-11-29T08:36:42.935Z,22.30
2017-11-29T08:39:11.039Z,21.70
2017-11-29T08:41:39.242Z,19.97
2017-11-29T08:44:07.389Z,20.70
2017-11-29T08:46:35.775Z,19.77
2017-11-29T08:49:04.156Z,20.80
2017-11-29T08:51:33.239Z,21.27
2017-11-29T08:54:01.411Z,20.20
2017-11-29T08:56:31.231Z,18.97
2017-11-29T09:01:44.661Z,20.73
2017-11-29T09:04:12.805Z,20.67
2017-11-29T09:06:40.887Z,20.80
2017-11-29T09:09:10.094Z,20.10
2017-11-29T09:11:38.904Z,21.17
2017-11-29T09:14:07.055Z,19.73
2017-11-29T09:16:35.200Z,19.90
2017-11-29T09:19:03.450Z,20.73
2017-11-29T09:21:31.687Z,18.87
2017-11-29T09:24:00.566Z,19.10
2017-11-29T09:26:32.512Z,19.80
2017-11-29T09:29:00.670Z,18.50
2017-11-29T09:31:32.327Z,17.37
2017-11-29T09:34:00.528Z,18.90
2017-11-29T09:36:28.755Z,19.40
2017-11-29T09:38:56.906Z,19.80
2017-11-29T09:41:25.101Z,20.40
2017-11-29T09:43:53.305Z,18.27
2017-11-29T09:46:21.521Z,19.63
2017-11-29T09:48:49.678Z,18.37
2017-11-29T09:51:17.930Z,19.60
2017-11-29T09:53:46.070Z,17.93
2017-11-29T09:56:15.246Z,18.23
2017-11-29T09:58:43.450Z,17.03
2017-11-29T10:01:12.084Z,16.07
2017-11-29T10:03:42.887Z,15.20
2017-11-29T10:06:12.948Z,16.73
2017-11-29T10:08:41.170Z,16.23
2017-11-29T10:11:10.074Z,16.03
2017-11-29T10:13:38.236Z,17.60
2017-11-29T10:16:10.418Z,16.93
2017-11-29T10:18:52.266Z,15.77
2017-11-29T10:21:28.213Z,15.60
2017-11-29T10:23:57.215Z,15.10
2017-11-29T10:26:28.948Z,17.13
2017-11-29T10:28:57.176Z,16.47
2017-11-29T10:31:25.309Z,15.47
2017-11-29T10:33:54.616Z,15.93
2017-11-29T10:36:23.858Z,14.97
2017-11-29T10:38:52.921Z,16.80
2017-11-29T10:41:21.768Z,15.10
2017-11-29T10:43:49.966Z,15.00
2017-11-29T10:46:18.945Z,15.73
2017-11-29T10:48:47.093Z,16.17
2017-11-29T10:51:15.235Z,15.70
2017-11-29T10:53:43.398Z,15.73
2017-11-29T10:56:11.572Z,15.53
2017-11-29T10:58:47.160Z,15.00
2017-11-29T11:01:15.332Z,15.00
2017-11-29T11:03:46.969Z,15.57
2017-11-29T11:06:15.842Z,15.70
2017-11-29T11:08:44.128Z,13.93
2017-11-29T11:11:13.121Z,14.47
2017-11-29T11:13:45.575Z,16.27
2017-11-29T11:16:14.972Z,15.67
2017-11-29T11:24:36.775Z,15.93
2017-11-29T11:27:06.270Z,15.30
2017-11-29T11:29:34.884Z,16.17
2017-11-29T11:32:03.286Z,15.87
2017-11-29T11:34:32.434Z,16.20
2017-11-29T11:37:26.393Z,17.47
2017-11-29T11:42:57.616Z,17.10
2017-11-29T11:45:32.385Z,15.27
2017-11-29T11:48:02.952Z,17.07
2017-11-29T11:50:31.818Z,17.83
2017-11-29T11:53:11.634Z,15.47
2017-11-29T11:55:39.867Z,16.60
2017-11-29T11:58:08.843Z,16.60
2017-11-29T12:00:37.193Z,17.87
2017-11-29T12:03:05.385Z,16.27
2017-11-29T12:05:37.065Z,17.63
2017-11-29T12:08:05.282Z,16.00
2017-11-29T12:10:34.153Z,16.60
2017-11-29T12:13:02.555Z,18.50
2017-11-29T12:15:30.714Z,16.67
2017-11-29T12:17:58.835Z,15.10
2017-11-29T12:20:27.012Z,18.47
2017-11-29T12:22:55.279Z,17.67
2017-11-29T12:25:23.439Z,18.93
2017-11-29T12:27:51.574Z,17.50
2017-11-29T12:30:22.087Z,20.37
2017-11-29T12:32:50.982Z,18.20
2017-11-29T12:35:19.212Z,18.20
2017-11-29T12:40:37.464Z,17.63
2017-11-29T12:43:05.630Z,18.80
2017-11-29T12:45:34.792Z,18.60
2017-11-29T12:48:14.871Z,18.60
2017-11-29T12:53:54.014Z,18.07
2017-11-29T12:56:22.293Z,17.30
2017-11-29T12:58:51.434Z,16.30
2017-11-29T13:01:20.036Z,17.10
2017-11-29T13:03:49.542Z,16.87
2017-11-29T13:06:18.511Z,16.50
2017-11-29T13:08:47.370Z,17.77
2017-11-29T13:11:15.908Z,17.37
2017-11-29T13:13:45.120Z,16.27
2017-11-29T13:16:28.093Z,16.07
2017-11-29T13:18:56.267Z,17.63
2017-11-29T13:21:25.891Z,16.70
2017-11-29T13:23:54.659Z,18.47
2017-11-29T13:26:23.502Z,18.80
2017-11-29T13:28:54.193Z,18.00
2017-11-29T13:31:22.307Z,16.70
2017-11-29T13:33:50.499Z,16.70
2017-11-29T13:36:18.715Z,18.47
2017-11-29T13:38:49.527Z,17.00
2017-11-29T13:41:18.625Z,17.03
2017-11-29T13:43:46.798Z,16.40
2017-11-29T13:46:22.015Z,16.70
2017-11-29T13:48:51.447Z,15.33
2017-11-29T13:51:20.062Z,17.20
2017-11-29T13:53:48.247Z,17.47
2017-11-29T13:56:21.357Z,17.17
2017-11-29T13:58:49.455Z,17.03
2017-11-29T14:01:19.193Z,17.83
2017-11-29T14:03:48.650Z,18.63
2017-11-29T14:06:17.466Z,19.00
2017-11-29T14:08:45.772Z,16.90
2017-11-29T14:11:13.908Z,16.33
2017-11-29T14:13:42.037Z,16.80
2017-11-29T14:16:11.202Z,16.47
2017-11-29T14:18:39.641Z,15.07
2017-11-29T14:21:07.888Z,17.23
2017-11-29T14:23:36.996Z,16.07
2017-11-29T14:26:05.979Z,16.73
2017-11-29T14:28:34.099Z,16.73
2017-11-29T14:31:02.274Z,16.63
2017-11-29T14:33:31.051Z,13.93
2017-11-29T14:35:59.176Z,15.77
2017-11-29T14:38:29.328Z,17.20
2017-11-29T14:40:57.423Z,16.83
2017-11-29T14:43:25.879Z,16.23
2017-11-29T14:45:54.329Z,17.40
2017-11-29T14:48:22.520Z,15.77
2017-11-29T14:50:54.724Z,17.07
2017-11-29T14:53:22.982Z,17.50
2017-11-29T14:55:51.438Z,16.00
2017-11-29T14:58:21.468Z,17.40
2017-11-29T15:00:56.172Z,16.63
2017-11-29T15:03:25.135Z,16.03
2017-11-29T15:05:53.260Z,17.90
2017-11-29T15:08:22.252Z,15.50
2017-11-29T15:10:50.540Z,17.07
2017-11-29T15:13:29.495Z,15.13
2017-11-29T15:15:57.668Z,14.77
2017-11-29T15:18:25.778Z,15.93
2017-11-29T15:20:59.872Z,15.40
2017-11-29T15:23:28.757Z,14.30
2017-11-29T15:25:56.893Z,17.53
2017-11-29T15:31:19.568Z,15.33
2017-11-29T15:33:47.873Z,16.57
2017-11-29T15:36:19.546Z,14.83
2017-11-29T15:38:47.731Z,14.67
2017-11-29T15:41:15.915Z,15.80
2017-11-29T15:43:44.069Z,13.67
2017-11-29T15:46:12.200Z,15.97
2017-11-29T15:48:40.336Z,14.97
2017-11-29T15:51:10.480Z,15.20
2017-11-29T15:53:38.767Z,16.23
2017-11-29T15:56:06.907Z,16.77
2017-11-29T15:58:35.039Z,18.30
2017-11-29T16:01:03.178Z,17.23
2017-11-29T16:03:31.284Z,15.77
2017-11-29T16:05:59.403Z,16.60
2017-11-29T16:08:28.443Z,15.93
2017-11-29T16:10:57.300Z,16.10
2017-11-29T16:13:26.190Z,17.13
2017-11-29T16:15:54.298Z,16.87
2017-11-29T16:18:22.707Z,17.60
2017-11-29T16:20:51.587Z,16.63
2017-11-29T16:23:19.720Z,16.57
2017-11-29T16:25:47.889Z,18.30
2017-11-29T16:28:16.074Z,21.23
2017-11-29T16:30:45.175Z,20.60
2017-11-29T16:33:13.350Z,19.40
2017-11-29T16:35:41.585Z,27.57
2017-11-29T16:38:09.697Z,24.70
2017-11-29T16:40:37.847Z,17.80
2017-11-29T16:43:06.009Z,19.77
2017-11-29T16:45:34.119Z,18.03
2017-11-29T16:48:03.219Z,16.40
2017-11-29T16:50:37.817Z,17.40
2017-11-29T16:53:06.088Z,15.70
2017-11-29T16:55:35.205Z,15.70
2017-11-29T16:58:03.373Z,18.00
2017-11-29T17:00:32.528Z,16.27
2017-11-29T17:03:00.647Z,17.00
2017-11-29T17:05:39.010Z,18.27
2017-11-29T17:08:07.130Z,17.70
2017-11-29T17:10:35.632Z,18.17
2017-11-29T17:13:03.758Z,17.30
2017-11-29T17:15:32.708Z,17.60
2017-11-29T17:18:00.849Z,16.60
2017-11-29T17:20:36.267Z,16.83
2017-11-29T17:23:11.209Z,16.90
2017-11-29T17:25:39.358Z,16.97
2017-11-29T17:28:07.485Z,17.80
2017-11-29T17:30:35.646Z,15.67
2017-11-29T17:33:03.944Z,15.87
2017-11-29T17:35:32.032Z,16.10
2017-11-29T17:38:00.168Z,14.40
2017-11-29T17:40:28.465Z,15.37
2017-11-29T17:42:56.581Z,14.70
2017-11-29T17:45:25.375Z,14.97
2017-11-29T17:47:53.696Z,17.07
2017-11-29T17:50:22.305Z,17.17
2017-11-29T17:52:51.315Z,13.80
2017-11-29T17:55:19.945Z,15.93
2017-11-29T17:57:48.181Z,16.73
2017-11-29T18:00:16.298Z,17.17
2017-11-29T18:02:44.670Z,16.60
2017-11-29T18:05:12.759Z,16.40
2017-11-29T18:07:40.939Z,16.63
2017-11-29T18:10:09.116Z,17.13
2017-11-29T18:12:37.266Z,16.83
2017-11-29T18:15:05.639Z,18.63
2017-11-29T18:17:33.758Z,17.20
2017-11-29T18:22:45.284Z,18.20
2017-11-29T18:25:13.446Z,17.00
2017-11-29T18:27:41.639Z,18.53
2017-11-29T18:30:09.874Z,15.57
2017-11-29T18:32:38.055Z,16.87
2017-11-29T18:35:07.088Z,17.80
2017-11-29T18:37:35.343Z,16.30
2017-11-29T18:40:05.050Z,17.10
2017-11-29T18:42:33.208Z,16.80
2017-11-29T18:45:01.478Z,16.43
2017-11-29T18:47:29.829Z,18.00
2017-11-29T18:49:58.912Z,14.90
2017-11-29T18:52:38.185Z,17.00
2017-11-29T18:55:12.127Z,17.23
2017-11-29T18:57:41.259Z,18.70
2017-11-29T19:00:10.454Z,16.63
2017-11-29T19:02:43.198Z,17.17
2017-11-29T19:05:13.533Z,18.70
2017-11-29T19:07:41.742Z,18.93
2017-11-29T19:10:10.137Z,20.20
2017-11-29T19:12:38.248Z,19.07
2017-11-29T19:15:06.384Z,19.03
2017-11-29T19:17:34.734Z,17.37
2017-11-29T19:20:03.126Z,19.37
2017-11-29T19:22:31.269Z,20.00
2017-11-29T19:24:59.409Z,20.20
2017-11-29T19:27:27.609Z,20.57
2017-11-29T19:29:55.716Z,22.00
2017-11-29T19:32:24.066Z,19.80
2017-11-29T19:34:53.245Z,22.10
2017-11-29T19:37:22.253Z,19.17
2017-11-29T19:39:50.384Z,20.53
2017-11-29T19:42:18.503Z,21.40
2017-11-29T19:44:47.414Z,21.67
2017-11-29T19:47:16.388Z,18.83
2017-11-29T19:49:57.196Z,20.53
2017-11-29T19:52:26.119Z,20.80
2017-11-29T19:55:13.951Z,22.30
2017-11-29T19:57:42.126Z,24.23
2017-11-29T20:00:10.289Z,22.80
2017-11-29T20:02:38.548Z,21.70
2017-11-29T20:05:06.691Z,23.20
2017-11-29T20:07:38.819Z,21.83
2017-11-29T20:10:26.381Z,22.67
2017-11-29T20:12:54.637Z,21.90
2017-11-29T20:15:23.529Z,21.70
2017-11-29T20:17:51.963Z,21.10
2017-11-29T20:20:20.114Z,21.00
2017-11-29T20:22:48.375Z,22.10
2017-11-29T20:25:16.616Z,20.10
2017-11-29T20:27:46.805Z,20.63
2017-11-29T20:30:15.022Z,22.00
2017-11-29T20:32:43.202Z,20.97
2017-11-29T20:35:12.025Z,19.93
2017-11-29T20:37:40.323Z,19.00
2017-11-29T20:40:09.324Z,21.37
2017-11-29T20:42:37.448Z,21.00
2017-11-29T20:45:05.780Z,21.10
2017-11-29T20:47:33.956Z,17.90
2017-11-29T20:50:02.159Z,20.83
2017-11-29T20:52:42.388Z,18.83
2017-11-29T20:55:10.600Z,21.07
2017-11-29T20:57:39.171Z,20.97
2017-11-29T21:00:07.390Z,18.43
2017-11-29T21:02:36.604Z,23.60
2017-11-29T21:05:04.765Z,21.80
2017-11-29T21:07:32.891Z,22.00
2017-11-29T21:10:01.112Z,23.90
2017-11-29T21:12:29.982Z,23.20
2017-11-29T21:14:58.136Z,25.67
2017-11-29T21:17:32.211Z,24.37
2017-11-29T21:20:01.181Z,21.77
2017-11-29T21:22:31.264Z,24.30
2017-11-29T21:25:00.404Z,24.00
2017-11-29T21:27:29.289Z,25.17
2017-11-29T21:29:57.457Z,24.53
2017-11-29T21:32:26.427Z,24.30
2017-11-29T21:35:02.600Z,24.23
2017-11-29T21:37:30.760Z,24.10
2017-11-29T21:39:58.900Z,21.60
2017-11-29T21:42:27.775Z,23.73
2017-11-29T21:44:56.203Z,25.23
2017-11-29T21:47:24.322Z,23.30
2017-11-29T21:49:52.491Z,23.57
2017-11-29T21:52:22.700Z,22.60
2017-11-29T21:54:50.820Z,23.30
2017-11-29T21:57:30.646Z,24.70
2017-11-29T21:59:59.591Z,22.90
2017-11-29T22:02:27.760Z,23.93
2017-11-29T22:04:55.900Z,23.90
2017-11-29T22:07:25.031Z,23.87
2017-11-29T22:09:53.955Z,23.20
2017-11-29T22:12:23.645Z,22.87
2017-11-29T22:14:51.730Z,24.00
2017-11-29T22:17:20.657Z,21.80
2017-11-29T22:19:48.871Z,24.23
2017-11-29T22:22:17.064Z,23.90
2017-11-29T22:24:45.262Z,22.80
2017-11-29T22:27:13.372Z,22.60
2017-11-29T22:29:42.014Z,22.63
2017-11-29T22:32:10.181Z,23.27
2017-11-29T22:34:38.529Z,21.97
2017-11-29T22:37:06.656Z,22.57
2017-11-29T22:42:46.711Z,23.93
2017-11-29T22:45:14.901Z,24.47
2017-11-29T22:47:43.093Z,23.80
2017-11-29T22:50:11.266Z,22.67
2017-11-29T22:52:40.321Z,23.83
2017-11-29T22:55:08.435Z,22.00
2017-11-29T22:57:36.587Z,22.20
2017-11-29T23:00:04.714Z,23.10
2017-11-29T23:02:32.852Z,20.70
2017-11-29T23:05:01.068Z,23.67
2017-11-29T23:07:46.282Z,22.00
2017-11-29T23:10:14.504Z,22.37
2017-11-29T23:12:42.707Z,24.93
2017-11-29T23:15:10.898Z,23.83
2017-11-29T23:17:39.068Z,25.30
2017-11-29T23:20:07.938Z,24.07
2017-11-29T23:22:36.111Z,24.33
2017-11-29T23:25:04.341Z,23.70
2017-11-29T23:27:33.221Z,23.83
2017-11-29T23:30:01.347Z,25.07
2017-11-29T23:32:29.556Z,24.60
2017-11-29T23:34:57.787Z,22.97
2017-11-29T23:37:25.916Z,23.03
2017-11-29T23:39:54.075Z,24.23
2017-11-29T23:42:23.027Z,23.20
2017-11-29T23:44:51.219Z,23.20
2017-11-29T23:47:19.405Z,24.60
2017-11-29T23:49:47.523Z,23.33
2017-11-29T23:52:16.752Z,22.77
2017-11-29T23:54:44.927Z,22.70
2017-11-29T23:57:13.175Z,21.90
2017-11-29T23:59:41.316Z,22.87
